Time;durP1;ratioP1;P1;durP2;ratioP2;P2;SDS_P1;SDS_P2;PMS_P1;PMS_P2;Temp;Humidity;BMP_temperature;BMP_pressure;BME280_temperature;BME280_humidity;BME280_pressure;Samples;Min_cycle;Max_cycle;Signal;HPM_P1;HPM_P2
2022/05/04 00:00:26;;;;;;;;;;;;;;;;;;;;;
2022/05/04 00:10:48;;;;;;;1.85;1.50;;;;;;;18.27;39.48;100221.23;1598478;121;25554;-79
2022/05/04 00:14:38;;;;;;;2.67;1.20;;;;;;;18.20;39.58;100229.65;1614545;121;25876;-79
2022/05/04 00:18:04;;;;;;;1.70;1.60;;;;;;;18.14;39.68;100228.39;1612896;117;26004;-78
2022/05/04 00:21:38;;;;;;;2.92;1.62;;;;;;;18.12;39.87;100231.05;1675864;116;25853;-81
2022/05/04 00:25:24;;;;;;;3.00;1.50;;;;;;;18.12;39.96;100234.11;1677432;116;25819;-79
2022/05/04 00:29:12;;;;;;;2.30;1.50;;;;;;;18.12;39.94;100235.42;1693310;115;26002;-78
2022/05/04 00:33:04;;;;;;;1.42;1.30;;;;;;;18.10;40.00;100241.19;1674997;115;25971;-78
2022/05/04 00:37:03;;;;;;;3.77;1.50;;;;;;;18.09;40.14;100239.41;1650986;118;26791;-80
2022/05/04 00:40:48;;;;;;;2.08;1.60;;;;;;;18.05;40.14;100244.29;1614386;121;26229;-82
2022/05/04 00:56:09;;;;;;;4.37;1.52;;;;;;;17.87;40.48;100254.56;1626402;118;25908;-89
2022/05/04 00:59:55;;;;;;;3.42;1.52;;;;;;;17.81;40.61;100254.61;1627118;119;25896;-83
2022/05/04 01:03:52;;;;;;;1.95;1.80;;;;;;;17.80;40.71;100269.56;1612597;120;26103;-80
2022/05/04 01:12:12;;;;;;;2.42;1.80;;;;;;;17.76;40.92;100276.17;1602471;120;25928;-80
2022/05/04 01:23:52;;;;;;;1.98;1.52;;;;;;;17.71;41.10;100271.78;1609084;120;25968;-80
2022/05/04 01:46:30;;;;;;;3.22;1.85;;;;;;;17.30;41.57;100269.42;1558001;120;25869;-80
2022/05/04 01:50:12;;;;;;;4.40;1.80;;;;;;;17.31;41.58;100270.30;1552896;124;25918;-79
2022/05/04 01:54:06;;;;;;;;;;;;;;;;;;;;;
2022/05/04 01:57:57;;;;;;;1.95;1.72;;;;;;;17.10;41.83;100272.61;1643381;118;25798;-80
2022/05/04 02:01:39;;;;;;;;;;;;;;;;;;;;;
2022/05/04 02:05:38;;;;;;;1.32;1.22;;;;;;;17.14;41.90;100291.45;1662960;115;25851;-78
2022/05/04 02:09:43;;;;;;;;;;;;;;;;;;;;;
2022/05/04 02:13:42;;;;;;;2.08;1.72;;;;;;;17.11;41.96;100282.25;1652855;116;25851;-88
2022/05/04 02:22:51;;;;;;;;;;;;;;;;;;;;;
2022/05/04 02:26:44;;;;;;;;;;;;;;;;;;;;;
2022/05/04 02:30:19;;;;;;;2.50;1.75;;;;;;;17.09;41.94;100295.44;1623595;118;25875;-79
2022/05/04 02:47:31;;;;;;;;;;;;;;;;;;;;;
2022/05/04 02:59:36;;;;;;;;;;;;;;;;;;;;;
2022/05/04 03:03:13;;;;;;;;;;;;;;;;;;;;;
2022/05/04 03:27:54;;;;;;;3.45;2.15;;;;;;;16.78;42.33;100342.08;1568498;123;25966;-78
2022/05/04 03:31:36;;;;;;;4.12;2.35;;;;;;;16.80;42.27;100341.61;1539929;126;26092;-78
2022/05/04 03:35:29;;;;;;;;;;;;;;;;;;;;;
2022/05/04 03:39:27;;;;;;;2.83;2.12;;;;;;;16.80;42.22;100347.33;1587927;123;25861;-78
2022/05/04 03:43:19;;;;;;;;;;;;;;;;;;;;;
2022/05/04 03:47:17;;;;;;;;;;;;;;;;;;;;;
2022/05/04 03:52:29;;;;;;;3.70;2.72;;;;;;;16.71;42.44;100364.88;1610077;119;26041;-78
2022/05/04 03:56:03;;;;;;;2.13;1.93;;;;;;;16.65;42.57;100360.93;1586384;122;26012;-77
2022/05/04 04:05:14;;;;;;;;;;;;;;;;;;;;;
2022/05/04 04:11:08;;;;;;;;;;;;;;;;;;;;;
2022/05/04 04:15:12;;;;;;;4.05;1.92;;;;;;;16.53;43.04;100385.93;1596459;122;26558;-79
2022/05/04 04:19:01;;;;;;;3.87;2.37;;;;;;;16.58;43.03;100393.84;1564746;123;25996;-78
2022/05/04 04:23:29;;;;;;;5.25;2.40;;;;;;;16.60;42.99;100386.80;1557922;123;26407;-79
2022/05/04 04:27:32;;;;;;;4.83;2.02;;;;;;;16.56;43.04;100394.27;1611649;122;25827;-83
2022/05/04 04:31:24;;;;;;;2.65;1.80;;;;;;;16.58;42.97;100393.84;1611981;121;25912;-82
2022/05/04 04:35:12;;;;;;;3.83;1.90;;;;;;;16.60;42.89;100403.91;1606531;121;26035;-79
2022/05/04 04:39:20;;;;;;;;;;;;;;;;;;;;;
2022/05/04 04:43:10;;;;;;;2.52;1.67;;;;;;;16.80;42.62;100402.61;1589912;116;26001;-89
2022/05/04 04:47:07;;;;;;;;;;;;;;;;;;;;;
2022/05/04 05:12:19;;;;;;;;;;;;;;;;;;;;;
2022/05/04 05:16:42;;;;;;;;;;;;;;;;;;;;;
2022/05/04 05:22:16;;;;;;;1.77;1.30;;;;;;;17.34;42.15;100440.24;1516451;129;26167;-77
2022/05/04 05:36:55;;;;;;;;;;;;;;;;;;;;;
2022/05/04 05:45:04;;;;;;;4.08;1.35;;;;;;;18.15;39.71;100459.67;1633578;116;25903;-77
2022/05/04 05:49:12;;;;;;;;;;;;;;;;;;;;;
2022/05/04 05:52:53;;;;;;;2.90;1.20;;;;;;;18.52;38.98;100448.41;1664054;114;26017;-78
2022/05/04 05:56:27;;;;;;;5.75;1.60;;;;;;;18.71;38.55;100449.60;1688255;115;26140;-80
2022/05/04 06:00:04;;;;;;;3.45;1.15;;;;;;;18.85;38.36;100455.66;1686411;113;25851;-79
2022/05/04 06:03:53;;;;;;;2.98;1.57;;;;;;;18.94;37.92;100458.67;1704464;114;25668;-78
2022/05/04 06:08:32;;;;;;;6.40;1.30;;;;;;;19.05;37.70;100455.47;1720014;110;25925;-78
2022/05/04 06:18:20;;;;;;;;;;;;;;;;;;;;;
2022/05/04 06:22:04;;;;;;;;;;;;;;;;;;;;;
2022/05/04 07:01:08;;;;;;;3.55;1.10;;;;;;;30.41;26.54;100499.00;1642651;117;25988;-84
2022/05/04 07:05:03;;;;;;;1.92;1.37;;;;;;;32.33;24.51;100507.09;1646207;118;25676;-76
2022/05/04 07:08:43;;;;;;;5.22;1.20;;;;;;;33.18;23.75;100517.21;1631411;119;25948;-77
2022/05/04 07:16:23;;;;;;;;;;;;;;;;;;;;;
2022/05/04 07:21:23;;;;;;;;;;;;;;;;;;;;;
2022/05/04 07:25:57;;;;;;;;;;;;;;;;;;;;;
2022/05/04 07:48:43;;;;;;;3.25;1.47;;;;;;;33.66;22.07;100539.11;1678797;116;25874;-76
2022/05/04 07:52:09;;;;;;;5.85;1.37;;;;;;;35.00;19.46;100555.49;1643587;119;25930;-74
2022/05/04 07:55:30;;;;;;;8.05;1.75;;;;;;;35.13;17.63;100556.78;1647611;118;25983;-71
2022/05/04 07:58:51;;;;;;;6.25;1.60;;;;;;;35.16;17.12;100559.75;1651146;118;25991;-69
2022/05/04 08:05:51;;;;;;;8.38;1.40;;;;;;;35.28;15.96;100560.67;1714333;113;26029;-71
2022/05/04 08:09:16;;;;;;;4.55;1.27;;;;;;;35.29;16.04;100561.03;1748524;110;26020;-88
2022/05/04 08:12:38;;;;;;;10.18;1.40;;;;;;;35.14;15.77;100561.73;1728726;113;26420;-80
2022/05/04 08:15:58;;;;;;;4.92;1.67;;;;;;;34.52;15.83;100558.17;1757898;111;25828;-70
2022/05/04 08:19:19;;;;;;;2.83;1.40;;;;;;;34.30;15.97;100560.72;1793905;107;25874;-73
2022/05/04 08:22:45;;;;;;;6.50;1.22;;;;;;;34.14;15.84;100560.09;1836470;107;25837;-69
2022/05/04 08:26:06;;;;;;;6.37;1.30;;;;;;;34.14;15.73;100569.07;1834001;107;25899;-72
2022/05/04 08:29:29;;;;;;;3.87;1.35;;;;;;;34.59;15.92;100564.00;1836398;107;25634;-72
2022/05/04 08:32:50;;;;;;;4.30;1.15;;;;;;;34.85;15.56;100568.83;1841355;104;25818;-72
2022/05/04 08:36:14;;;;;;;5.62;0.90;;;;;;;35.14;15.73;100572.58;1853135;106;25386;-70
2022/05/04 08:39:35;;;;;;;6.25;1.07;;;;;;;35.31;15.04;100576.21;1853284;106;25442;-72
2022/05/04 08:42:59;;;;;;;3.98;1.00;;;;;;;35.41;15.14;100572.30;1853437;106;25801;-71
2022/05/04 08:46:23;;;;;;;7.70;1.15;;;;;;;35.52;15.20;100566.92;1853052;105;25428;-74
2022/05/04 08:49:46;;;;;;;10.30;1.62;;;;;;;35.40;14.80;100564.62;1853242;106;25871;-75
2022/05/04 08:53:08;;;;;;;5.75;1.32;;;;;;;35.35;14.95;100576.84;1853367;106;25821;-69
2022/05/04 08:56:30;;;;;;;4.47;1.25;;;;;;;35.46;14.88;100576.86;1853110;106;25717;-70
2022/05/04 08:59:51;;;;;;;3.05;1.20;;;;;;;35.51;14.88;100576.52;1853502;106;25852;-70
2022/05/04 09:03:14;;;;;;;2.85;1.12;;;;;;;35.54;14.81;100578.53;1853497;106;25832;-74
2022/05/04 09:10:06;;;;;;;2.22;0.93;;;;;;;35.46;14.72;100580.92;1822256;106;25901;-70
2022/05/04 09:13:27;;;;;;;1.90;0.88;;;;;;;35.62;14.61;100576.06;1822420;108;25493;-70
2022/05/04 09:16:48;;;;;;;2.52;0.93;;;;;;;35.65;14.62;100574.97;1822404;108;25998;-71
2022/05/04 09:23:53;;;;;;;4.00;0.80;;;;;;;34.93;14.63;100570.95;1822249;108;26076;-82
2022/05/04 09:27:16;;;;;;;3.67;0.82;;;;;;;34.64;14.68;100567.25;1822376;108;25864;-70
2022/05/04 09:30:47;;;;;;;7.37;1.00;;;;;;;34.59;14.90;100565.84;1822589;108;25930;-72
2022/05/04 09:34:09;;;;;;;6.42;0.98;;;;;;;34.48;14.99;100569.32;1836556;107;25891;-71
2022/05/04 09:45:16;;;;;;;1.62;1.00;;;;;;;34.64;15.44;100568.60;1822347;108;25786;-71
2022/05/04 09:48:36;;;;;;;2.33;1.00;;;;;;;34.63;15.16;100571.41;1822532;108;25848;-73
2022/05/04 09:52:03;;;;;;;4.15;0.57;;;;;;;34.78;15.01;100567.56;1822695;106;25995;-70
2022/05/04 09:55:26;;;;;;;2.70;0.70;;;;;;;34.83;14.87;100569.92;1822748;108;25946;-79
2022/05/04 09:58:48;;;;;;;3.20;0.75;;;;;;;34.62;14.80;100571.04;1824996;106;25849;-70
2022/05/04 10:02:10;;;;;;;4.50;0.70;;;;;;;34.65;14.64;100567.61;1853476;106;25938;-75
2022/05/04 10:05:33;;;;;;;9.18;0.98;;;;;;;34.42;14.86;100563.86;1835806;106;25798;-74
2022/05/04 10:08:54;;;;;;;1.10;0.78;;;;;;;34.24;15.00;100559.80;1853502;106;25862;-72
2022/05/04 10:12:58;;;;;;;5.30;0.70;;;;;;;34.06;15.82;100558.81;1940500;101;25850;-69
2022/05/04 10:16:24;;;;;;;1.30;0.72;;;;;;;33.93;16.11;100555.22;1760971;110;25856;-68
2022/05/04 10:23:32;;;;;;;1.70;0.70;;;;;;;33.58;15.89;100552.29;1723874;113;26114;-69
2022/05/04 10:27:03;;;;;;;1.90;1.00;;;;;;;33.18;15.75;100548.73;1699594;116;25736;-74
2022/05/04 10:30:33;;;;;;;3.27;1.10;;;;;;;32.83;15.99;100543.86;1687291;114;25851;-82
2022/05/04 10:33:56;;;;;;;8.93;1.20;;;;;;;32.62;16.26;100542.11;1700653;116;25924;-67
2022/05/04 10:37:20;;;;;;;9.98;1.60;;;;;;;32.20;16.65;100534.48;1692093;115;25844;-69
2022/05/04 10:40:56;;;;;;;3.87;1.32;;;;;;;31.88;16.91;100536.51;1707486;115;25934;-82
2022/05/04 10:44:17;;;;;;;4.28;1.17;;;;;;;31.90;17.02;100529.20;1707759;115;25850;-70
2022/05/04 10:47:41;;;;;;;2.98;1.10;;;;;;;32.15;16.88;100531.19;1690255;115;26141;-74
2022/05/04 10:51:21;;;;;;;8.00;1.10;;;;;;;32.12;16.73;100524.16;1712716;110;26790;-79
2022/05/04 10:54:49;;;;;;;5.83;1.07;;;;;;;32.14;17.02;100522.73;1745134;113;25859;-69
2022/05/04 10:58:39;;;;;;;3.12;0.90;;;;;;;32.15;17.33;100517.22;1774744;111;25921;-68
2022/05/04 11:02:04;;;;;;;2.85;1.00;;;;;;;31.67;16.11;100511.73;1786203;109;25799;-71
2022/05/04 11:05:31;;;;;;;1.55;0.80;;;;;;;30.04;16.86;100514.47;1785328;110;25866;-71
2022/05/04 11:08:56;;;;;;;5.20;0.90;;;;;;;29.89;17.51;100506.76;1837208;106;25902;-69
2022/05/04 11:12:19;;;;;;;1.55;0.82;;;;;;;30.16;17.22;100509.36;1851359;106;25805;-68
2022/05/04 11:15:52;;;;;;;6.03;0.90;;;;;;;30.22;17.59;100499.64;1849957;104;25737;-74
2022/05/04 11:19:17;;;;;;;2.40;0.80;;;;;;;30.50;17.94;100505.66;1860971;104;25919;-68
2022/05/04 11:22:39;;;;;;;4.33;1.00;;;;;;;30.89;17.67;100505.20;1918358;103;26297;-69
2022/05/04 11:25:59;;;;;;;2.55;0.90;;;;;;;31.17;17.16;100499.50;1919670;101;25850;-69
2022/05/04 11:29:26;;;;;;;7.17;1.13;;;;;;;31.44;17.38;100505.07;1919747;103;25803;-69
2022/05/04 11:33:13;;;;;;;3.58;1.10;;;;;;;31.78;17.30;100509.23;1918911;103;26050;-69
2022/05/04 11:36:34;;;;;;;8.58;0.90;;;;;;;31.69;17.21;100506.64;1918785;101;25813;-68
2022/05/04 11:39:55;;;;;;;4.62;1.12;;;;;;;30.98;17.42;100514.09;1925921;101;25859;-67
2022/05/04 11:43:32;;;;;;;4.70;0.93;;;;;;;30.64;18.20;100509.75;1907963;102;25823;-68
2022/05/04 11:46:55;;;;;;;2.77;0.80;;;;;;;30.22;18.37;100503.20;1909324;101;25948;-74
2022/05/04 11:50:19;;;;;;;8.55;1.10;;;;;;;29.92;18.45;100494.98;1977962;100;25789;-67
2022/05/04 11:53:40;;;;;;;4.17;1.00;;;;;;;29.33;18.34;100497.67;1967794;98;26610;-87
2022/05/04 11:57:01;;;;;;;3.55;1.00;;;;;;;28.85;18.62;100485.34;1964881;100;25818;-68
2022/05/04 12:00:22;;;;;;;2.75;1.80;;;;;;;28.60;18.76;100487.05;1976303;98;25818;-85
2022/05/04 12:04:30;;;;;;;;;;;;;;;;;;;;;
2022/05/04 12:08:36;;;;;;;4.22;1.02;;;;;;;27.94;18.99;100477.25;1916923;102;25864;-66
2022/05/04 12:11:57;;;;;;;11.03;1.20;;;;;;;27.61;19.11;100466.25;1872558;105;25831;-74
2022/05/04 12:15:20;;;;;;;4.75;1.00;;;;;;;27.22;19.25;100471.14;1897871;104;26626;-84
2022/05/04 12:18:42;;;;;;;3.90;1.35;;;;;;;27.05;19.48;100473.17;1887992;104;26057;-78
2022/05/04 12:22:07;;;;;;;6.47;0.88;;;;;;;26.84;19.46;100471.82;1878177;104;25759;-85
2022/05/04 12:25:26;;;;;;;2.27;0.90;;;;;;;26.66;19.57;100471.23;1880210;104;25889;-79
2022/05/04 12:36:12;;;;;;;11.97;1.52;;;;;;;26.19;20.40;100466.02;1876021;105;25834;-71
2022/05/04 12:39:33;;;;;;;2.47;1.22;;;;;;;27.06;20.34;100467.74;1870118;103;25445;-69
2022/05/04 12:42:55;;;;;;;4.08;0.72;;;;;;;27.40;20.12;100458.25;1858419;105;25822;-70
2022/05/04 12:46:19;;;;;;;4.00;0.72;;;;;;;27.56;19.86;100466.48;1908542;101;26195;-71
2022/05/04 12:49:45;;;;;;;7.92;1.55;;;;;;;27.75;19.67;100456.66;1971207;100;25731;-72
2022/05/04 12:53:09;;;;;;;3.65;0.70;;;;;;;27.95;19.36;100458.44;1971638;100;25833;-67
2022/05/04 12:56:48;;;;;;;4.22;1.02;;;;;;;28.38;19.19;100454.14;1971686;100;25865;-69
2022/05/04 13:00:14;;;;;;;9.50;0.82;;;;;;;28.70;19.19;100448.09;1971448;100;25778;-68
2022/05/04 13:03:35;;;;;;;5.30;1.00;;;;;;;28.38;19.03;100450.98;1971715;100;25783;-78
2022/05/04 13:07:25;;;;;;;3.72;0.95;;;;;;;28.41;19.16;100448.19;1970180;100;25751;-73
2022/05/04 13:10:48;;;;;;;4.37;1.00;;;;;;;28.65;19.03;100441.20;1966518;100;25751;-79
2022/05/04 13:14:10;;;;;;;3.75;1.27;;;;;;;28.25;18.77;100445.86;1971492;100;25807;-70
2022/05/04 13:17:35;;;;;;;9.48;1.02;;;;;;;27.93;18.65;100444.71;1971668;98;25860;-71
2022/05/04 13:20:56;;;;;;;5.05;1.25;;;;;;;28.06;18.80;100439.64;1969794;99;25746;-67
2022/05/04 13:24:17;;;;;;;2.52;1.00;;;;;;;28.20;18.93;100444.72;1971639;100;25287;-71
2022/05/04 13:27:42;;;;;;;3.52;0.90;;;;;;;28.42;18.42;100438.36;1971686;100;25854;-67
2022/05/04 13:31:04;;;;;;;2.40;1.27;;;;;;;28.61;18.64;100439.63;1970566;100;25825;-70
2022/05/04 13:34:27;;;;;;;9.28;1.77;;;;;;;28.85;18.67;100428.98;1971826;100;25796;-67
2022/05/04 13:37:50;;;;;;;6.60;1.05;;;;;;;29.10;18.18;100430.44;1971940;99;25740;-68
2022/05/04 13:41:11;;;;;;;7.17;1.92;;;;;;;28.29;17.94;100427.81;1969097;100;25795;-70
2022/05/04 13:44:32;;;;;;;3.08;0.70;;;;;;;28.32;18.32;100422.30;1971789;100;25760;-74
2022/05/04 13:47:53;;;;;;;4.05;1.27;;;;;;;28.37;18.49;100417.08;1977673;98;26020;-69
2022/05/04 13:55:20;;;;;;;7.35;0.98;;;;;;;28.52;18.35;100411.92;2006803;96;26416;-68
2022/05/04 13:58:41;;;;;;;;;;;;;;;28.19;18.01;100409.97;1981369;100;25875;-68
2022/05/04 14:02:20;;;;;;;8.63;1.20;;;;;;;28.21;18.06;100410.30;1984223;98;25914;-69
2022/05/04 14:06:43;;;;;;;7.08;0.70;;;;;;;28.18;18.24;100414.91;2013568;97;25793;-73
2022/05/04 14:10:05;;;;;;;6.12;1.20;;;;;;;27.94;18.27;100407.11;2015345;98;25879;-68
2022/05/04 14:13:29;;;;;;;2.05;1.27;;;;;;;27.33;18.29;100410.42;2013166;96;25790;-72
2022/05/04 14:16:50;;;;;;;3.80;1.20;;;;;;;27.02;18.50;100407.75;2002153;95;25875;-69
2022/05/04 14:20:11;;;;;;;4.00;0.98;;;;;;;26.57;18.77;100407.47;2010602;98;25681;-74
2022/05/04 14:27:40;;;;;;;6.27;0.90;;;;;;;25.88;19.60;100402.22;2025265;96;25875;-67
2022/05/04 14:31:01;;;;;;;5.20;1.10;;;;;;;25.12;19.49;100396.16;2027573;96;25782;-81
2022/05/04 14:34:22;;;;;;;9.15;0.88;;;;;;;24.47;19.81;100394.84;2034449;97;26152;-78
2022/05/04 14:37:45;;;;;;;8.78;0.93;;;;;;;24.09;20.65;100399.17;2055164;95;25814;-68
2022/05/04 14:41:06;;;;;;;3.72;0.90;;;;;;;23.98;20.68;100399.52;2072477;95;25915;-77
2022/05/04 14:44:27;;;;;;;5.25;1.10;;;;;;;23.81;20.81;100392.05;2072699;95;25952;-68
2022/05/04 14:47:50;;;;;;;7.40;0.95;;;;;;;23.56;20.91;100391.91;2072241;94;25843;-69
2022/05/04 14:51:10;;;;;;;6.20;1.22;;;;;;;23.44;21.40;100393.13;2070888;94;25839;-69
2022/05/04 14:54:31;;;;;;;3.47;0.90;;;;;;;23.32;21.27;100389.48;2086174;92;26470;-78
2022/05/04 14:57:52;;;;;;;2.62;1.00;;;;;;;23.32;21.38;100387.72;2125336;91;25767;-76
2022/05/04 15:01:16;;;;;;;4.17;1.15;;;;;;;23.31;21.71;100381.09;2114653;92;25887;-82
2022/05/04 15:12:05;;;;;;;2.65;1.10;;;;;;;23.68;21.77;100372.05;2075938;94;25818;-68
2022/05/04 15:15:27;;;;;;;2.65;0.90;;;;;;;23.73;22.09;100370.14;2085578;94;25812;-72
2022/05/04 15:18:47;;;;;;;6.90;0.98;;;;;;;23.77;21.87;100368.66;2085484;94;25846;-68
2022/05/04 15:22:08;;;;;;;2.67;1.52;;;;;;;23.93;21.90;100367.72;2068074;94;25820;-69
2022/05/04 15:25:29;;;;;;;7.33;2.15;;;;;;;23.97;21.63;100364.50;2023171;96;25763;-68
2022/05/04 15:28:50;;;;;;;3.27;0.80;;;;;;;23.81;21.43;100369.42;2024500;96;26478;-78
2022/05/04 15:32:11;;;;;;;5.62;1.27;;;;;;;23.61;21.55;100359.82;2038696;96;25865;-72
2022/05/04 15:35:32;;;;;;;13.15;1.67;;;;;;;23.30;21.45;100360.27;2028541;95;25401;-75
2022/05/04 15:38:53;;;;;;;4.78;0.70;;;;;;;23.13;22.08;100364.34;2040129;93;25773;-68
2022/05/04 15:46:03;;;;;;;6.47;0.95;;;;;;;23.33;22.19;100363.31;1969420;97;26013;-68
2022/05/04 15:49:24;;;;;;;3.67;0.80;;;;;;;23.45;22.40;100358.94;2013675;97;25827;-71
2022/05/04 15:52:45;;;;;;;3.00;0.80;;;;;;;23.51;22.09;100357.89;2009394;97;25777;-70
2022/05/04 15:56:09;;;;;;;2.05;0.60;;;;;;;23.45;22.05;100356.28;2008902;97;25802;-66
2022/05/04 15:59:54;;;;;;;4.65;0.85;;;;;;;23.43;21.92;100354.60;1999758;98;25787;-69
2022/05/04 16:08:20;;;;;;;;;;;;;;;;;;;;;
2022/05/04 16:15:46;;;;;;;3.10;0.80;;;;;;;22.16;22.25;100354.43;1913269;103;26582;-70
2022/05/04 16:22:49;;;;;;;6.15;1.27;;;;;;;21.73;22.98;100359.84;1915280;103;25676;-68
2022/05/04 16:26:14;;;;;;;4.65;1.00;;;;;;;21.68;23.12;100358.63;1917240;101;25955;-79
2022/05/04 16:29:32;;;;;;;4.35;0.80;;;;;;;21.61;23.18;100358.81;1917284;101;25772;-68
2022/05/04 16:32:54;;;;;;;7.17;1.82;;;;;;;21.53;23.42;100358.98;1910378;101;26253;-71
2022/05/04 16:36:18;;;;;;;6.20;1.32;;;;;;;21.58;23.50;100356.22;1920292;101;44411;-83
2022/05/04 16:39:39;;;;;;;5.60;1.20;;;;;;;21.64;23.56;100360.94;1920353;101;25830;-73
2022/05/04 16:43:00;;;;;;;3.72;1.50;;;;;;;21.65;23.45;100353.84;1968680;100;26516;-88
2022/05/04 16:46:29;;;;;;;1.85;0.95;;;;;;;21.60;23.57;100349.98;1937316;100;25868;-73
2022/05/04 16:49:50;;;;;;;6.92;1.10;;;;;;;21.51;23.66;100354.62;1884073;105;25839;-70
2022/05/04 16:53:11;;;;;;;6.97;1.25;;;;;;;21.40;23.71;100350.41;1951670;100;25770;-71
2022/05/04 16:56:33;;;;;;;8.15;0.90;;;;;;;21.20;24.20;100350.80;1985749;98;25672;-71
2022/05/04 16:59:56;;;;;;;4.97;0.90;;;;;;;21.10;24.15;100347.91;1982439;99;25861;-72
2022/05/04 17:03:19;;;;;;;5.62;1.22;;;;;;;21.12;24.32;100350.06;1988883;98;26468;-71
2022/05/04 17:06:42;;;;;;;2.52;0.80;;;;;;;21.02;24.19;100345.84;1982780;98;25368;-72
2022/05/04 17:10:04;;;;;;;8.00;0.80;;;;;;;20.81;24.23;100354.22;1983231;99;25253;-74
2022/05/04 17:13:25;;;;;;;3.30;0.90;;;;;;;20.72;24.26;100356.58;2066760;94;25784;-71
2022/05/04 17:16:49;;;;;;;8.85;1.07;;;;;;;20.66;24.29;100347.45;2095762;94;25699;-71
2022/05/04 17:20:11;;;;;;;4.83;0.90;;;;;;;20.65;24.53;100354.95;2105857;94;25747;-75
2022/05/04 17:23:31;;;;;;;4.47;0.88;;;;;;;20.60;24.58;100363.45;2106568;94;25732;-73
2022/05/04 17:26:52;;;;;;;7.23;1.00;;;;;;;20.42;24.53;100365.95;2106322;92;25754;-74
2022/05/04 17:30:13;;;;;;;6.05;1.47;;;;;;;20.32;24.65;100368.29;2106342;92;31277;-71
2022/05/04 17:37:14;;;;;;;6.22;1.30;;;;;;;20.15;24.64;100366.82;2106079;94;25724;-70
2022/05/04 17:40:34;;;;;;;1.98;1.30;;;;;;;19.88;24.91;100372.50;2106491;93;25754;-70
2022/05/04 17:43:56;;;;;;;6.42;1.37;;;;;;;19.77;25.00;100380.15;2103586;92;25918;-76
2022/05/04 17:47:18;;;;;;;1.65;1.00;;;;;;;19.71;25.31;100376.30;2082080;94;26476;-73
2022/05/04 17:50:39;;;;;;;3.52;1.22;;;;;;;19.64;25.24;100382.98;2072986;92;25839;-70
2022/05/04 17:53:59;;;;;;;6.62;1.10;;;;;;;19.54;25.24;100386.16;2087610;94;25875;-69
2022/05/04 17:57:20;;;;;;;3.42;1.00;;;;;;;19.56;25.34;100381.74;2066566;95;25925;-70
2022/05/04 18:00:41;;;;;;;4.83;1.20;;;;;;;19.50;25.29;100389.75;2066936;95;31188;-71
2022/05/04 18:04:06;;;;;;;6.40;1.25;;;;;;;19.40;25.43;100388.98;2067321;95;25759;-82
2022/05/04 18:07:26;;;;;;;1.52;1.02;;;;;;;19.27;25.39;100388.70;2068164;94;25689;-70
2022/05/04 18:10:47;;;;;;;5.20;0.90;;;;;;;19.15;25.51;100393.70;2074376;95;30991;-76
2022/05/04 18:14:08;;;;;;;5.87;1.22;;;;;;;18.97;25.68;100399.20;2095854;94;26122;-70
2022/05/04 18:17:29;;;;;;;3.85;1.32;;;;;;;18.75;25.94;100408.64;2103112;94;30880;-73
2022/05/04 18:20:59;;;;;;;2.45;1.07;;;;;;;18.60;26.14;100403.48;2103469;94;26448;-77
2022/05/04 18:24:21;;;;;;;4.42;0.90;;;;;;;18.56;27.44;100401.32;2100548;91;25689;-86
2022/05/04 18:27:45;;;;;;;2.20;1.25;;;;;;;19.17;28.82;100406.89;2102658;94;26035;-89
2022/05/04 18:31:06;;;;;;;5.03;1.20;;;;;;;19.58;30.57;100410.37;2103088;94;25705;-88
2022/05/04 18:34:37;;;;;;;4.97;1.27;;;;;;;19.76;30.82;100413.25;2103186;94;25720;-75
2022/05/04 18:38:15;;;;;;;3.75;1.30;;;;;;;19.87;30.79;100416.61;2092159;94;25728;-89
2022/05/04 18:41:45;;;;;;;4.15;1.52;;;;;;;19.85;31.60;100417.10;2039206;95;25979;-83
2022/05/04 18:45:25;;;;;;;4.08;1.07;;;;;;;19.80;31.79;100422.89;2039294;94;25903;-86
2022/05/04 18:49:15;;;;;;;3.30;1.40;;;;;;;19.75;32.48;100421.64;2044694;96;25954;-77
2022/05/04 18:53:18;;;;;;;5.03;1.10;;;;;;;19.67;33.10;100428.78;1920308;101;25962;-76
2022/05/04 18:57:14;;;;;;;;;;;;;;;;;;;;;
2022/05/04 19:00:57;;;;;;;2.65;1.55;;;;;;;19.52;33.66;100436.44;1798575;108;26028;-76
2022/05/04 19:08:35;;;;;;;7.72;1.70;;;;;;;19.44;34.49;100444.92;1737092;112;25913;-79
2022/05/04 19:12:17;;;;;;;4.80;1.55;;;;;;;19.39;34.72;100449.38;1731865;110;26342;-80
2022/05/04 19:15:48;;;;;;;;;;;;;;;19.38;35.52;100452.05;1759670;111;25879;-79
2022/05/04 19:19:43;;;;;;;6.28;1.98;;;;;;;19.40;36.11;100456.86;1758933;107;25462;-77
2022/05/04 19:27:03;;;;;;;5.55;1.92;;;;;;;19.29;36.49;100465.78;1685458;114;26229;-85
2022/05/04 19:31:28;;;;;;;;;;;;;;;;;;;;;
2022/05/04 19:35:11;;;;;;;;;;;;;;;;;;;;;
2022/05/04 19:38:41;;;;;;;3.55;1.72;;;;;;;19.15;38.09;100477.41;1652459;115;25993;-73
2022/05/04 19:42:26;;;;;;;1.60;1.30;;;;;;;19.08;38.66;100481.88;1703475;115;25866;-77
2022/05/04 19:46:09;;;;;;;3.10;1.42;;;;;;;19.04;38.88;100485.44;1663692;117;26294;-78
2022/05/04 19:53:50;;;;;;;;;;;;;;;;;;;;;
2022/05/04 20:02:15;;;;;;;;;;;;;;;;;;;;;
2022/05/04 20:05:51;;;;;;;3.37;1.10;;;;;;;18.64;40.47;100494.98;1602085;122;25831;-85
2022/05/04 20:09:41;;;;;;;5.05;1.80;;;;;;;18.53;40.54;100500.35;1621165;116;26109;-74
2022/05/04 20:17:14;;;;;;;;;;;;;;;;;;;;;
2022/05/04 20:35:31;;;;;;;4.40;1.57;;;;;;;18.07;40.81;100511.63;1689236;114;26693;-80
2022/05/04 20:39:18;;;;;;;5.58;1.77;;;;;;;17.98;40.87;100522.20;1683863;115;26057;-81
2022/05/04 20:43:05;;;;;;;4.42;2.72;;;;;;;17.91;41.23;100531.91;1695983;114;26706;-83
2022/05/04 20:46:58;;;;;;;3.65;1.57;;;;;;;17.83;40.94;100525.35;1630042;119;26208;-84
2022/05/04 20:54:33;;;;;;;2.02;1.67;;;;;;;17.62;40.29;100528.91;1583868;122;25558;-80
2022/05/04 20:58:14;;;;;;;2.33;1.30;;;;;;;17.43;39.67;100527.19;1584143;123;26122;-81
2022/05/04 21:01:52;;;;;;;10.28;1.98;;;;;;;17.26;39.21;100526.35;1594837;121;25957;-81
2022/05/04 21:09:15;;;;;;;3.27;2.08;;;;;;;17.00;39.08;100533.82;1626432;119;25953;-83
2022/05/04 21:16:32;;;;;;;3.92;1.72;;;;;;;16.79;38.66;100522.86;1626093;116;25921;-81
2022/05/04 21:24:50;;;;;;;6.03;1.85;;;;;;;16.57;38.49;100522.35;1624320;120;26174;-82
2022/05/04 21:28:41;;;;;;;2.45;1.90;;;;;;;16.44;37.88;100527.62;1624466;120;25976;-82
2022/05/04 21:32:21;;;;;;;;;;;;;;;;;;;;;
2022/05/04 21:36:51;;;;;;;7.53;2.02;;;;;;;16.27;37.89;100531.97;1658889;114;25932;-83
2022/05/04 21:40:48;;;;;;;4.87;2.12;;;;;;;16.17;38.05;100531.50;1659536;119;26049;-82
2022/05/04 21:44:10;;;;;;;6.03;2.00;;;;;;;16.08;37.91;100541.98;1664634;118;26065;-84
2022/05/04 21:47:42;;;;;;;4.10;2.30;;;;;;;16.01;38.12;100534.06;1706114;114;26026;-83
2022/05/04 21:51:24;;;;;;;3.05;2.12;;;;;;;15.94;37.94;100537.54;1754321;110;26635;-84
2022/05/04 21:55:04;;;;;;;4.17;2.40;;;;;;;15.86;38.00;100539.23;1791580;108;26152;-83
2022/05/04 22:03:02;;;;;;;7.28;2.17;;;;;;;15.73;37.62;100533.52;1805869;107;26010;-83
2022/05/04 22:07:03;;;;;;;13.78;3.55;;;;;;;15.66;38.06;100531.28;1798359;108;26065;-83
2022/05/04 22:10:47;;;;;;;;;;;;;;;;;;;;;
2022/05/04 22:13:57;;;;;;;4.72;2.77;;;;;;;15.53;38.16;100534.68;1735177;113;25959;-82
2022/05/04 22:21:45;;;;;;;5.87;2.58;;;;;;;15.42;37.60;100538.97;1737642;111;26543;-81
2022/05/04 22:29:20;;;;;;;3.45;2.33;;;;;;;15.31;37.82;100541.53;1685914;116;26717;-82
2022/05/04 22:39:58;;;;;;;;;;;;;;;;;;;;;
2022/05/04 22:43:28;;;;;;;2.62;1.67;;;;;;;15.11;37.77;100544.88;1646533;118;26033;-83
2022/05/04 22:46:59;;;;;;;8.50;2.62;;;;;;;15.03;37.69;100549.65;1632099;120;26034;-83
2022/05/04 22:51:02;;;;;;;5.03;2.47;;;;;;;14.96;37.47;100548.72;1605369;121;25509;-84
2022/05/04 22:58:27;;;;;;;;;;;;;;;;;;;;;
2022/05/04 23:02:34;;;;;;;;;;;;;;;;;;;;;
2022/05/04 23:06:22;;;;;;;6.95;2.40;;;;;;;14.75;37.54;100557.69;1746246;109;25989;-80
2022/05/04 23:10:21;;;;;;;5.28;2.47;;;;;;;14.71;37.66;100558.53;1761733;111;25974;-80
2022/05/04 23:14:01;;;;;;;2.95;2.08;;;;;;;14.66;37.69;100557.19;1814022;108;25994;-77
2022/05/04 23:17:57;;;;;;;;;;;;;;;;;;;;;
2022/05/04 23:21:17;;;;;;;7.58;2.30;;;;;;;14.53;37.94;100543.50;1775009;109;26096;-82
2022/05/04 23:28:29;;;;;;;2.42;1.90;;;;;;;14.50;37.94;100556.15;1722348;113;26445;-82
2022/05/04 23:32:22;;;;;;;4.67;2.25;;;;;;;14.49;37.96;100552.18;1697671;115;25834;-83